sensor_id;sensor_type;location;lat;lon;timestamp;P1;durP1;ratioP1;P2;durP2;ratioP2
37203;SDS011;23098;48.054;10.636;2024-01-06T00:00:53;19.13;;;10.65;;
37203;SDS011;23098;48.054;10.636;2024-01-06T00:03:19;21.63;;;11.98;;
37203;SDS011;23098;48.054;10.636;2024-01-06T00:05:44;18.52;;;11.20;;
37203;SDS011;23098;48.054;10.636;2024-01-06T00:08:10;17.48;;;11.23;;
37203;SDS011;23098;48.054;10.636;2024-01-06T00:10:35;17.67;;;10.00;;
37203;SDS011;23098;48.054;10.636;2024-01-06T00:13:01;16.08;;;9.30;;
37203;SDS011;23098;48.054;10.636;2024-01-06T00:15:26;14.02;;;8.68;;
37203;SDS011;23098;48.054;10.636;2024-01-06T00:17:52;14.98;;;8.23;;
37203;SDS011;23098;48.054;10.636;2024-01-06T00:20:18;12.48;;;7.68;;
37203;SDS011;23098;48.054;10.636;2024-01-06T00:22:43;11.68;;;7.65;;
37203;SDS011;23098;48.054;10.636;2024-01-06T00:25:09;11.50;;;6.55;;
37203;SDS011;23098;48.054;10.636;2024-01-06T00:27:34;11.70;;;6.88;;
37203;SDS011;23098;48.054;10.636;2024-01-06T00:30:00;10.52;;;6.32;;
37203;SDS011;23098;48.054;10.636;2024-01-06T00:32:25;11.23;;;6.05;;
37203;SDS011;23098;48.054;10.636;2024-01-06T00:34:51;9.18;;;4.88;;
37203;SDS011;23098;48.054;10.636;2024-01-06T00:37:16;7.55;;;4.60;;
37203;SDS011;23098;48.054;10.636;2024-01-06T00:39:42;8.20;;;4.32;;
37203;SDS011;23098;48.054;10.636;2024-01-06T00:42:07;7.85;;;4.63;;
37203;SDS011;23098;48.054;10.636;2024-01-06T00:44:35;5.57;;;3.03;;
37203;SDS011;23098;48.054;10.636;2024-01-06T00:47:01;4.43;;;2.33;;
37203;SDS011;23098;48.054;10.636;2024-01-06T00:49:27;3.50;;;1.98;;
37203;SDS011;23098;48.054;10.636;2024-01-06T00:51:52;2.47;;;1.85;;
37203;SDS011;23098;48.054;10.636;2024-01-06T00:54:18;1.63;;;1.20;;
37203;SDS011;23098;48.054;10.636;2024-01-06T00:56:44;1.42;;;1.00;;
37203;SDS011;23098;48.054;10.636;2024-01-06T00:59:10;1.88;;;1.17;;
37203;SDS011;23098;48.054;10.636;2024-01-06T01:01:35;3.42;;;1.23;;
37203;SDS011;23098;48.054;10.636;2024-01-06T01:04:01;2.85;;;1.45;;
37203;SDS011;23098;48.054;10.636;2024-01-06T01:06:26;2.78;;;1.33;;
37203;SDS011;23098;48.054;10.636;2024-01-06T01:08:53;3.60;;;1.50;;
37203;SDS011;23098;48.054;10.636;2024-01-06T01:11:18;1.73;;;1.20;;
37203;SDS011;23098;48.054;10.636;2024-01-06T01:13:44;1.65;;;1.33;;
37203;SDS011;23098;48.054;10.636;2024-01-06T01:16:10;3.53;;;1.90;;
37203;SDS011;23098;48.054;10.636;2024-01-06T01:18:35;3.67;;;2.08;;
37203;SDS011;23098;48.054;10.636;2024-01-06T01:21:01;4.20;;;2.47;;
37203;SDS011;23098;48.054;10.636;2024-01-06T01:23:26;5.38;;;3.15;;
37203;SDS011;23098;48.054;10.636;2024-01-06T01:25:53;6.05;;;3.60;;
37203;SDS011;23098;48.054;10.636;2024-01-06T01:28:20;4.82;;;3.25;;
37203;SDS011;23098;48.054;10.636;2024-01-06T01:30:45;5.55;;;3.38;;
37203;SDS011;23098;48.054;10.636;2024-01-06T01:33:11;4.57;;;3.05;;
37203;SDS011;23098;48.054;10.636;2024-01-06T01:35:36;3.33;;;2.45;;
37203;SDS011;23098;48.054;10.636;2024-01-06T01:38:02;3.45;;;2.92;;
37203;SDS011;23098;48.054;10.636;2024-01-06T01:40:28;2.47;;;1.75;;
37203;SDS011;23098;48.054;10.636;2024-01-06T01:42:53;2.45;;;1.95;;
37203;SDS011;23098;48.054;10.636;2024-01-06T01:45:19;3.58;;;2.17;;
37203;SDS011;23098;48.054;10.636;2024-01-06T01:47:44;3.22;;;1.95;;
37203;SDS011;23098;48.054;10.636;2024-01-06T01:50:11;2.60;;;1.63;;
37203;SDS011;23098;48.054;10.636;2024-01-06T01:52:39;7.57;;;3.83;;
37203;SDS011;23098;48.054;10.636;2024-01-06T01:55:07;5.75;;;3.17;;
37203;SDS011;23098;48.054;10.636;2024-01-06T01:57:33;6.53;;;3.45;;
37203;SDS011;23098;48.054;10.636;2024-01-06T01:59:59;4.93;;;3.20;;
37203;SDS011;23098;48.054;10.636;2024-01-06T02:02:26;3.70;;;2.67;;
37203;SDS011;23098;48.054;10.636;2024-01-06T02:04:53;4.43;;;2.90;;
37203;SDS011;23098;48.054;10.636;2024-01-06T02:07:19;3.92;;;2.70;;
37203;SDS011;23098;48.054;10.636;2024-01-06T02:09:45;3.15;;;1.85;;
37203;SDS011;23098;48.054;10.636;2024-01-06T02:12:11;2.13;;;1.70;;
37203;SDS011;23098;48.054;10.636;2024-01-06T02:14:36;2.83;;;1.73;;
37203;SDS011;23098;48.054;10.636;2024-01-06T02:17:02;3.05;;;1.90;;
37203;SDS011;23098;48.054;10.636;2024-01-06T02:19:27;2.78;;;1.98;;
37203;SDS011;23098;48.054;10.636;2024-01-06T02:21:53;3.53;;;2.03;;
37203;SDS011;23098;48.054;10.636;2024-01-06T02:24:20;2.42;;;1.60;;
37203;SDS011;23098;48.054;10.636;2024-01-06T02:26:46;3.63;;;2.05;;
37203;SDS011;23098;48.054;10.636;2024-01-06T02:29:11;4.22;;;1.98;;
37203;SDS011;23098;48.054;10.636;2024-01-06T02:31:37;3.13;;;1.80;;
37203;SDS011;23098;48.054;10.636;2024-01-06T02:34:02;2.80;;;1.65;;
37203;SDS011;23098;48.054;10.636;2024-01-06T02:36:28;2.20;;;1.52;;
37203;SDS011;23098;48.054;10.636;2024-01-06T02:38:54;1.88;;;1.27;;
37203;SDS011;23098;48.054;10.636;2024-01-06T02:41:19;2.15;;;1.30;;
37203;SDS011;23098;48.054;10.636;2024-01-06T02:43:45;2.60;;;1.50;;
37203;SDS011;23098;48.054;10.636;2024-01-06T02:46:11;1.27;;;1.17;;
37203;SDS011;23098;48.054;10.636;2024-01-06T02:48:36;3.80;;;1.60;;
37203;SDS011;23098;48.054;10.636;2024-01-06T02:51:02;2.78;;;1.38;;
37203;SDS011;23098;48.054;10.636;2024-01-06T02:53:28;1.90;;;1.50;;
37203;SDS011;23098;48.054;10.636;2024-01-06T02:55:53;1.65;;;1.35;;
37203;SDS011;23098;48.054;10.636;2024-01-06T02:58:19;1.50;;;1.25;;
37203;SDS011;23098;48.054;10.636;2024-01-06T03:00:44;1.55;;;1.00;;
37203;SDS011;23098;48.054;10.636;2024-01-06T03:03:10;1.42;;;1.00;;
37203;SDS011;23098;48.054;10.636;2024-01-06T03:05:35;1.45;;;1.10;;
37203;SDS011;23098;48.054;10.636;2024-01-06T03:08:02;1.30;;;0.90;;
37203;SDS011;23098;48.054;10.636;2024-01-06T03:10:28;1.17;;;0.90;;
37203;SDS011;23098;48.054;10.636;2024-01-06T03:12:53;1.25;;;1.02;;
37203;SDS011;23098;48.054;10.636;2024-01-06T03:15:19;1.65;;;1.02;;
37203;SDS011;23098;48.054;10.636;2024-01-06T03:17:44;1.10;;;1.00;;
37203;SDS011;23098;48.054;10.636;2024-01-06T03:20:10;1.40;;;0.80;;
37203;SDS011;23098;48.054;10.636;2024-01-06T03:22:35;1.27;;;0.98;;
37203;SDS011;23098;48.054;10.636;2024-01-06T03:25:04;1.42;;;1.05;;
37203;SDS011;23098;48.054;10.636;2024-01-06T03:27:31;1.15;;;0.80;;
37203;SDS011;23098;48.054;10.636;2024-01-06T03:29:56;1.05;;;0.88;;
37203;SDS011;23098;48.054;10.636;2024-01-06T03:32:22;1.75;;;1.00;;
37203;SDS011;23098;48.054;10.636;2024-01-06T03:34:47;1.20;;;0.90;;
37203;SDS011;23098;48.054;10.636;2024-01-06T03:37:13;1.45;;;0.90;;
37203;SDS011;23098;48.054;10.636;2024-01-06T03:39:38;1.00;;;0.90;;
37203;SDS011;23098;48.054;10.636;2024-01-06T03:42:04;1.02;;;0.85;;
37203;SDS011;23098;48.054;10.636;2024-01-06T03:44:30;1.55;;;1.10;;
37203;SDS011;23098;48.054;10.636;2024-01-06T03:46:58;2.13;;;1.00;;
37203;SDS011;23098;48.054;10.636;2024-01-06T03:49:24;1.25;;;0.90;;
37203;SDS011;23098;48.054;10.636;2024-01-06T03:51:50;0.90;;;0.80;;
37203;SDS011;23098;48.054;10.636;2024-01-06T03:54:15;0.80;;;0.77;;
37203;SDS011;23098;48.054;10.636;2024-01-06T03:56:41;1.50;;;0.90;;
37203;SDS011;23098;48.054;10.636;2024-01-06T03:59:06;1.08;;;0.80;;
37203;SDS011;23098;48.054;10.636;2024-01-06T04:01:32;0.95;;;0.77;;
37203;SDS011;23098;48.054;10.636;2024-01-06T04:04:01;1.13;;;0.80;;
37203;SDS011;23098;48.054;10.636;2024-01-06T04:06:29;0.80;;;0.73;;
37203;SDS011;23098;48.054;10.636;2024-01-06T04:08:56;1.58;;;0.90;;
37203;SDS011;23098;48.054;10.636;2024-01-06T04:11:23;1.83;;;0.90;;
37203;SDS011;23098;48.054;10.636;2024-01-06T04:13:48;1.52;;;0.90;;
37203;SDS011;23098;48.054;10.636;2024-01-06T04:16:14;2.60;;;1.10;;
37203;SDS011;23098;48.054;10.636;2024-01-06T04:18:39;1.60;;;1.10;;
37203;SDS011;23098;48.054;10.636;2024-01-06T04:21:05;2.72;;;1.15;;
37203;SDS011;23098;48.054;10.636;2024-01-06T04:23:30;1.30;;;1.10;;
37203;SDS011;23098;48.054;10.636;2024-01-06T04:25:56;2.03;;;1.58;;
37203;SDS011;23098;48.054;10.636;2024-01-06T04:28:22;2.95;;;1.70;;
37203;SDS011;23098;48.054;10.636;2024-01-06T04:30:47;2.55;;;1.90;;
37203;SDS011;23098;48.054;10.636;2024-01-06T04:33:13;3.78;;;2.13;;
37203;SDS011;23098;48.054;10.636;2024-01-06T04:35:39;4.28;;;2.00;;
37203;SDS011;23098;48.054;10.636;2024-01-06T04:38:04;5.75;;;2.08;;
37203;SDS011;23098;48.054;10.636;2024-01-06T04:40:30;3.83;;;1.90;;
37203;SDS011;23098;48.054;10.636;2024-01-06T04:42:55;2.65;;;1.92;;
37203;SDS011;23098;48.054;10.636;2024-01-06T04:45:21;4.80;;;2.00;;
37203;SDS011;23098;48.054;10.636;2024-01-06T04:47:50;9.45;;;1.90;;
37203;SDS011;23098;48.054;10.636;2024-01-06T04:50:16;3.42;;;2.00;;
37203;SDS011;23098;48.054;10.636;2024-01-06T04:52:42;2.88;;;2.00;;
37203;SDS011;23098;48.054;10.636;2024-01-06T04:55:08;3.25;;;2.03;;
37203;SDS011;23098;48.054;10.636;2024-01-06T04:57:34;4.57;;;2.17;;
37203;SDS011;23098;48.054;10.636;2024-01-06T05:00:00;3.13;;;2.13;;
37203;SDS011;23098;48.054;10.636;2024-01-06T05:02:25;5.95;;;2.10;;
37203;SDS011;23098;48.054;10.636;2024-01-06T05:04:51;7.50;;;1.85;;
37203;SDS011;23098;48.054;10.636;2024-01-06T05:07:17;4.05;;;2.03;;
37203;SDS011;23098;48.054;10.636;2024-01-06T05:09:42;4.40;;;2.00;;
37203;SDS011;23098;48.054;10.636;2024-01-06T05:12:09;4.97;;;2.20;;
37203;SDS011;23098;48.054;10.636;2024-01-06T05:14:34;3.83;;;1.88;;
37203;SDS011;23098;48.054;10.636;2024-01-06T05:17:00;6.65;;;2.00;;
37203;SDS011;23098;48.054;10.636;2024-01-06T05:19:25;2.97;;;2.22;;
37203;SDS011;23098;48.054;10.636;2024-01-06T05:21:51;4.85;;;1.80;;
37203;SDS011;23098;48.054;10.636;2024-01-06T05:24:17;3.05;;;2.13;;
37203;SDS011;23098;48.054;10.636;2024-01-06T05:26:44;3.22;;;1.73;;
37203;SDS011;23098;48.054;10.636;2024-01-06T05:29:09;4.25;;;2.25;;
37203;SDS011;23098;48.054;10.636;2024-01-06T05:31:35;2.85;;;2.15;;
37203;SDS011;23098;48.054;10.636;2024-01-06T05:34:00;3.97;;;2.50;;
37203;SDS011;23098;48.054;10.636;2024-01-06T05:36:26;3.92;;;2.35;;
37203;SDS011;23098;48.054;10.636;2024-01-06T05:38:51;4.05;;;2.45;;
37203;SDS011;23098;48.054;10.636;2024-01-06T05:41:17;5.20;;;2.90;;
37203;SDS011;23098;48.054;10.636;2024-01-06T05:43:42;5.45;;;2.95;;
37203;SDS011;23098;48.054;10.636;2024-01-06T05:46:08;10.13;;;3.13;;
37203;SDS011;23098;48.054;10.636;2024-01-06T05:48:35;3.55;;;2.78;;
37203;SDS011;23098;48.054;10.636;2024-01-06T05:51:01;5.75;;;2.60;;
37203;SDS011;23098;48.054;10.636;2024-01-06T05:53:29;5.30;;;2.78;;
37203;SDS011;23098;48.054;10.636;2024-01-06T05:55:54;3.03;;;2.40;;
37203;SDS011;23098;48.054;10.636;2024-01-06T05:58:20;5.88;;;2.85;;
37203;SDS011;23098;48.054;10.636;2024-01-06T06:00:45;5.70;;;2.22;;
37203;SDS011;23098;48.054;10.636;2024-01-06T06:03:11;4.03;;;2.45;;
37203;SDS011;23098;48.054;10.636;2024-01-06T06:05:37;4.45;;;2.13;;
37203;SDS011;23098;48.054;10.636;2024-01-06T06:08:03;4.18;;;2.30;;
37203;SDS011;23098;48.054;10.636;2024-01-06T06:10:29;7.13;;;2.85;;
37203;SDS011;23098;48.054;10.636;2024-01-06T06:13:05;3.17;;;2.25;;
37203;SDS011;23098;48.054;10.636;2024-01-06T06:15:31;6.05;;;2.65;;
37203;SDS011;23098;48.054;10.636;2024-01-06T06:17:57;3.97;;;2.47;;
37203;SDS011;23098;48.054;10.636;2024-01-06T06:20:25;5.05;;;2.70;;
37203;SDS011;23098;48.054;10.636;2024-01-06T06:22:50;4.05;;;2.30;;
37203;SDS011;23098;48.054;10.636;2024-01-06T06:25:16;4.95;;;2.35;;
37203;SDS011;23098;48.054;10.636;2024-01-06T06:27:42;3.50;;;2.60;;
37203;SDS011;23098;48.054;10.636;2024-01-06T06:30:07;3.80;;;2.30;;
37203;SDS011;23098;48.054;10.636;2024-01-06T06:32:33;4.75;;;2.40;;
37203;SDS011;23098;48.054;10.636;2024-01-06T06:34:59;3.92;;;2.30;;
37203;SDS011;23098;48.054;10.636;2024-01-06T06:37:24;4.40;;;2.70;;
37203;SDS011;23098;48.054;10.636;2024-01-06T06:39:50;4.53;;;3.13;;
37203;SDS011;23098;48.054;10.636;2024-01-06T06:42:15;6.25;;;3.10;;
37203;SDS011;23098;48.054;10.636;2024-01-06T06:44:41;4.70;;;2.85;;
37203;SDS011;23098;48.054;10.636;2024-01-06T06:47:06;5.72;;;3.65;;
37203;SDS011;23098;48.054;10.636;2024-01-06T06:49:32;6.28;;;4.10;;
37203;SDS011;23098;48.054;10.636;2024-01-06T06:51:57;8.07;;;4.47;;
37203;SDS011;23098;48.054;10.636;2024-01-06T06:54:23;8.85;;;4.32;;
37203;SDS011;23098;48.054;10.636;2024-01-06T06:56:48;6.75;;;4.22;;
37203;SDS011;23098;48.054;10.636;2024-01-06T06:59:14;7.38;;;3.42;;
37203;SDS011;23098;48.054;10.636;2024-01-06T07:01:39;6.35;;;3.28;;
37203;SDS011;23098;48.054;10.636;2024-01-06T07:04:05;4.68;;;3.25;;
37203;SDS011;23098;48.054;10.636;2024-01-06T07:06:30;7.78;;;3.70;;
37203;SDS011;23098;48.054;10.636;2024-01-06T07:08:56;7.93;;;4.25;;
37203;SDS011;23098;48.054;10.636;2024-01-06T07:11:22;6.88;;;3.78;;
37203;SDS011;23098;48.054;10.636;2024-01-06T07:13:48;6.05;;;3.75;;
37203;SDS011;23098;48.054;10.636;2024-01-06T07:16:14;8.23;;;3.83;;
37203;SDS011;23098;48.054;10.636;2024-01-06T07:18:39;5.40;;;3.75;;
37203;SDS011;23098;48.054;10.636;2024-01-06T07:21:05;10.15;;;4.22;;
37203;SDS011;23098;48.054;10.636;2024-01-06T07:23:34;7.38;;;3.92;;
37203;SDS011;23098;48.054;10.636;2024-01-06T07:26:00;5.47;;;3.28;;
37203;SDS011;23098;48.054;10.636;2024-01-06T07:28:25;6.88;;;3.53;;
37203;SDS011;23098;48.054;10.636;2024-01-06T07:30:51;8.45;;;5.18;;
37203;SDS011;23098;48.054;10.636;2024-01-06T07:33:17;7.18;;;4.47;;
37203;SDS011;23098;48.054;10.636;2024-01-06T07:35:43;8.20;;;4.90;;
37203;SDS011;23098;48.054;10.636;2024-01-06T07:38:09;8.48;;;4.50;;
37203;SDS011;23098;48.054;10.636;2024-01-06T07:40:38;9.15;;;4.53;;
37203;SDS011;23098;48.054;10.636;2024-01-06T07:43:04;10.70;;;5.40;;
37203;SDS011;23098;48.054;10.636;2024-01-06T07:45:30;12.77;;;6.90;;
37203;SDS011;23098;48.054;10.636;2024-01-06T07:47:56;13.55;;;6.07;;
37203;SDS011;23098;48.054;10.636;2024-01-06T07:50:22;8.90;;;5.50;;
37203;SDS011;23098;48.054;10.636;2024-01-06T07:52:48;10.57;;;6.03;;
37203;SDS011;23098;48.054;10.636;2024-01-06T07:55:13;12.07;;;5.38;;
37203;SDS011;23098;48.054;10.636;2024-01-06T07:57:39;10.88;;;5.80;;
37203;SDS011;23098;48.054;10.636;2024-01-06T08:00:04;10.15;;;5.65;;
37203;SDS011;23098;48.054;10.636;2024-01-06T08:02:30;10.82;;;5.03;;
37203;SDS011;23098;48.054;10.636;2024-01-06T08:04:56;9.55;;;5.15;;
37203;SDS011;23098;48.054;10.636;2024-01-06T08:07:22;9.02;;;4.90;;
37203;SDS011;23098;48.054;10.636;2024-01-06T08:09:47;10.27;;;5.07;;
37203;SDS011;23098;48.054;10.636;2024-01-06T08:12:14;8.88;;;5.32;;
37203;SDS011;23098;48.054;10.636;2024-01-06T08:14:40;8.68;;;5.40;;
37203;SDS011;23098;48.054;10.636;2024-01-06T08:17:05;8.85;;;5.90;;
37203;SDS011;23098;48.054;10.636;2024-01-06T08:19:31;9.73;;;5.93;;
37203;SDS011;23098;48.054;10.636;2024-01-06T08:21:58;25.55;;;12.57;;
37203;SDS011;23098;48.054;10.636;2024-01-06T08:24:29;16.50;;;9.85;;
37203;SDS011;23098;48.054;10.636;2024-01-06T08:26:54;11.55;;;7.18;;
37203;SDS011;23098;48.054;10.636;2024-01-06T08:29:20;10.60;;;5.90;;
37203;SDS011;23098;48.054;10.636;2024-01-06T08:31:51;12.15;;;5.97;;
37203;SDS011;23098;48.054;10.636;2024-01-06T08:34:54;9.65;;;5.97;;
37203;SDS011;23098;48.054;10.636;2024-01-06T08:37:20;9.40;;;5.93;;
37203;SDS011;23098;48.054;10.636;2024-01-06T08:40:19;9.40;;;5.80;;
37203;SDS011;23098;48.054;10.636;2024-01-06T08:42:45;9.10;;;5.57;;
37203;SDS011;23098;48.054;10.636;2024-01-06T08:45:15;9.52;;;5.90;;
37203;SDS011;23098;48.054;10.636;2024-01-06T08:48:05;9.32;;;5.82;;
37203;SDS011;23098;48.054;10.636;2024-01-06T08:50:30;10.90;;;6.07;;
37203;SDS011;23098;48.054;10.636;2024-01-06T08:52:56;9.00;;;5.57;;
37203;SDS011;23098;48.054;10.636;2024-01-06T08:55:24;10.25;;;6.05;;
37203;SDS011;23098;48.054;10.636;2024-01-06T08:57:49;9.38;;;6.07;;
37203;SDS011;23098;48.054;10.636;2024-01-06T09:00:15;10.70;;;6.18;;
37203;SDS011;23098;48.054;10.636;2024-01-06T09:02:42;13.13;;;6.63;;
37203;SDS011;23098;48.054;10.636;2024-01-06T09:05:07;10.20;;;6.53;;
37203;SDS011;23098;48.054;10.636;2024-01-06T09:07:33;11.77;;;6.30;;
37203;SDS011;23098;48.054;10.636;2024-01-06T09:09:58;9.15;;;6.30;;
37203;SDS011;23098;48.054;10.636;2024-01-06T09:12:24;10.43;;;6.40;;
37203;SDS011;23098;48.054;10.636;2024-01-06T09:14:50;9.48;;;5.63;;
37203;SDS011;23098;48.054;10.636;2024-01-06T09:17:15;9.68;;;5.57;;
37203;SDS011;23098;48.054;10.636;2024-01-06T09:19:41;29.25;;;16.10;;
37203;SDS011;23098;48.054;10.636;2024-01-06T09:22:07;16.48;;;9.07;;
37203;SDS011;23098;48.054;10.636;2024-01-06T09:24:32;10.55;;;6.82;;
37203;SDS011;23098;48.054;10.636;2024-01-06T09:26:58;9.85;;;5.93;;
37203;SDS011;23098;48.054;10.636;2024-01-06T09:29:24;10.70;;;5.07;;
37203;SDS011;23098;48.054;10.636;2024-01-06T09:31:50;8.43;;;4.70;;
37203;SDS011;23098;48.054;10.636;2024-01-06T09:34:15;9.07;;;5.13;;
37203;SDS011;23098;48.054;10.636;2024-01-06T09:36:41;18.33;;;8.45;;
37203;SDS011;23098;48.054;10.636;2024-01-06T09:39:06;30.27;;;13.45;;
37203;SDS011;23098;48.054;10.636;2024-01-06T09:41:33;52.33;;;17.00;;
37203;SDS011;23098;48.054;10.636;2024-01-06T09:43:59;118.88;;;37.03;;
37203;SDS011;23098;48.054;10.636;2024-01-06T09:46:25;62.97;;;21.08;;
37203;SDS011;23098;48.054;10.636;2024-01-06T09:48:52;38.50;;;15.07;;
37203;SDS011;23098;48.054;10.636;2024-01-06T09:51:19;24.23;;;13.10;;
37203;SDS011;23098;48.054;10.636;2024-01-06T09:53:49;23.38;;;14.50;;
37203;SDS011;23098;48.054;10.636;2024-01-06T09:56:31;20.25;;;10.60;;
37203;SDS011;23098;48.054;10.636;2024-01-06T09:58:57;49.28;;;30.15;;
37203;SDS011;23098;48.054;10.636;2024-01-06T10:01:23;110.70;;;61.17;;
37203;SDS011;23098;48.054;10.636;2024-01-06T10:03:48;42.95;;;26.70;;
37203;SDS011;23098;48.054;10.636;2024-01-06T10:06:14;25.55;;;16.92;;
37203;SDS011;23098;48.054;10.636;2024-01-06T10:08:43;20.75;;;10.57;;
37203;SDS011;23098;48.054;10.636;2024-01-06T10:11:27;16.88;;;10.15;;
37203;SDS011;23098;48.054;10.636;2024-01-06T10:13:55;15.65;;;8.60;;
37203;SDS011;23098;48.054;10.636;2024-01-06T10:16:22;15.80;;;9.43;;
37203;SDS011;23098;48.054;10.636;2024-01-06T10:18:47;30.13;;;13.52;;
37203;SDS011;23098;48.054;10.636;2024-01-06T10:21:13;21.92;;;12.05;;
37203;SDS011;23098;48.054;10.636;2024-01-06T10:23:42;17.30;;;7.68;;
37203;SDS011;23098;48.054;10.636;2024-01-06T10:26:14;16.95;;;9.35;;
37203;SDS011;23098;48.054;10.636;2024-01-06T10:28:41;25.23;;;12.25;;
37203;SDS011;23098;48.054;10.636;2024-01-06T10:31:08;29.15;;;14.52;;
37203;SDS011;23098;48.054;10.636;2024-01-06T10:33:35;14.05;;;8.20;;
37203;SDS011;23098;48.054;10.636;2024-01-06T10:36:00;14.18;;;9.43;;
37203;SDS011;23098;48.054;10.636;2024-01-06T10:38:32;13.18;;;6.43;;
37203;SDS011;23098;48.054;10.636;2024-01-06T10:41:04;10.55;;;6.95;;
37203;SDS011;23098;48.054;10.636;2024-01-06T10:43:34;13.38;;;8.77;;
37203;SDS011;23098;48.054;10.636;2024-01-06T10:46:03;12.32;;;8.90;;
37203;SDS011;23098;48.054;10.636;2024-01-06T10:48:32;11.88;;;6.88;;
37203;SDS011;23098;48.054;10.636;2024-01-06T10:50:59;10.60;;;6.03;;
37203;SDS011;23098;48.054;10.636;2024-01-06T10:53:27;9.05;;;5.32;;
37203;SDS011;23098;48.054;10.636;2024-01-06T10:55:52;7.90;;;5.30;;
37203;SDS011;23098;48.054;10.636;2024-01-06T10:58:18;8.38;;;5.47;;
37203;SDS011;23098;48.054;10.636;2024-01-06T11:00:44;9.90;;;5.90;;
37203;SDS011;23098;48.054;10.636;2024-01-06T11:03:10;9.52;;;5.60;;
37203;SDS011;23098;48.054;10.636;2024-01-06T11:05:37;10.55;;;6.50;;
37203;SDS011;23098;48.054;10.636;2024-01-06T11:08:05;12.15;;;5.90;;
37203;SDS011;23098;48.054;10.636;2024-01-06T11:10:31;8.18;;;5.10;;
37203;SDS011;23098;48.054;10.636;2024-01-06T11:15:39;9.90;;;4.82;;
37203;SDS011;23098;48.054;10.636;2024-01-06T11:18:05;12.98;;;6.10;;
37203;SDS011;23098;48.054;10.636;2024-01-06T11:20:31;8.77;;;5.78;;
37203;SDS011;23098;48.054;10.636;2024-01-06T11:23:17;8.20;;;3.95;;
37203;SDS011;23098;48.054;10.636;2024-01-06T11:25:44;7.75;;;4.78;;
37203;SDS011;23098;48.054;10.636;2024-01-06T11:28:09;6.78;;;4.28;;
37203;SDS011;23098;48.054;10.636;2024-01-06T11:30:37;6.75;;;4.40;;
37203;SDS011;23098;48.054;10.636;2024-01-06T11:33:04;8.85;;;4.40;;
37203;SDS011;23098;48.054;10.636;2024-01-06T11:35:30;14.30;;;8.43;;
37203;SDS011;23098;48.054;10.636;2024-01-06T11:38:06;13.05;;;7.47;;
37203;SDS011;23098;48.054;10.636;2024-01-06T11:40:33;9.82;;;5.60;;
37203;SDS011;23098;48.054;10.636;2024-01-06T11:43:10;7.03;;;4.32;;
37203;SDS011;23098;48.054;10.636;2024-01-06T11:45:40;8.18;;;4.18;;
37203;SDS011;23098;48.054;10.636;2024-01-06T11:48:08;6.93;;;4.53;;
37203;SDS011;23098;48.054;10.636;2024-01-06T11:50:36;9.00;;;4.20;;
37203;SDS011;23098;48.054;10.636;2024-01-06T11:53:03;12.18;;;7.65;;
37203;SDS011;23098;48.054;10.636;2024-01-06T11:55:29;10.57;;;5.00;;
37203;SDS011;23098;48.054;10.636;2024-01-06T11:57:58;7.70;;;4.35;;
37203;SDS011;23098;48.054;10.636;2024-01-06T12:00:30;5.82;;;3.83;;
37203;SDS011;23098;48.054;10.636;2024-01-06T12:02:57;7.03;;;2.90;;
37203;SDS011;23098;48.054;10.636;2024-01-06T12:05:24;9.18;;;3.83;;
37203;SDS011;23098;48.054;10.636;2024-01-06T12:08:01;11.80;;;7.78;;
37203;SDS011;23098;48.054;10.636;2024-01-06T12:10:31;6.30;;;4.65;;
37203;SDS011;23098;48.054;10.636;2024-01-06T12:13:07;10.02;;;4.28;;
37203;SDS011;23098;48.054;10.636;2024-01-06T12:15:36;6.10;;;3.75;;
37203;SDS011;23098;48.054;10.636;2024-01-06T12:18:04;10.23;;;4.47;;
37203;SDS011;23098;48.054;10.636;2024-01-06T12:20:30;8.20;;;3.97;;
37203;SDS011;23098;48.054;10.636;2024-01-06T12:22:56;10.35;;;4.40;;
37203;SDS011;23098;48.054;10.636;2024-01-06T12:25:22;7.55;;;4.13;;
37203;SDS011;23098;48.054;10.636;2024-01-06T12:27:48;7.13;;;4.90;;
37203;SDS011;23098;48.054;10.636;2024-01-06T12:30:18;15.45;;;9.43;;
37203;SDS011;23098;48.054;10.636;2024-01-06T12:32:48;14.05;;;8.60;;
37203;SDS011;23098;48.054;10.636;2024-01-06T12:35:15;9.07;;;5.75;;
37203;SDS011;23098;48.054;10.636;2024-01-06T12:37:41;9.30;;;5.00;;
37203;SDS011;23098;48.054;10.636;2024-01-06T12:40:08;9.85;;;5.40;;
37203;SDS011;23098;48.054;10.636;2024-01-06T12:42:35;6.95;;;4.78;;
37203;SDS011;23098;48.054;10.636;2024-01-06T12:45:01;10.55;;;5.90;;
37203;SDS011;23098;48.054;10.636;2024-01-06T12:47:27;9.43;;;6.78;;
37203;SDS011;23098;48.054;10.636;2024-01-06T12:49:52;22.40;;;13.40;;
37203;SDS011;23098;48.054;10.636;2024-01-06T12:52:18;9.68;;;6.07;;
37203;SDS011;23098;48.054;10.636;2024-01-06T12:54:43;15.05;;;8.48;;
37203;SDS011;23098;48.054;10.636;2024-01-06T12:57:09;12.50;;;6.90;;
37203;SDS011;23098;48.054;10.636;2024-01-06T12:59:34;14.40;;;9.02;;
37203;SDS011;23098;48.054;10.636;2024-01-06T13:02:00;21.98;;;11.55;;
37203;SDS011;23098;48.054;10.636;2024-01-06T13:04:26;47.53;;;26.80;;
37203;SDS011;23098;48.054;10.636;2024-01-06T13:06:52;12.60;;;6.70;;
37203;SDS011;23098;48.054;10.636;2024-01-06T13:09:17;35.58;;;20.40;;
37203;SDS011;23098;48.054;10.636;2024-01-06T13:11:43;15.57;;;7.30;;
37203;SDS011;23098;48.054;10.636;2024-01-06T13:14:11;42.40;;;20.30;;
37203;SDS011;23098;48.054;10.636;2024-01-06T13:16:37;34.08;;;18.40;;
37203;SDS011;23098;48.054;10.636;2024-01-06T13:19:02;17.48;;;9.90;;
37203;SDS011;23098;48.054;10.636;2024-01-06T13:21:29;15.43;;;8.07;;
37203;SDS011;23098;48.054;10.636;2024-01-06T13:23:55;12.15;;;7.28;;
37203;SDS011;23098;48.054;10.636;2024-01-06T13:26:25;21.30;;;11.05;;
37203;SDS011;23098;48.054;10.636;2024-01-06T13:28:52;15.73;;;9.80;;
37203;SDS011;23098;48.054;10.636;2024-01-06T13:31:18;10.82;;;6.95;;
37203;SDS011;23098;48.054;10.636;2024-01-06T13:33:44;11.40;;;6.38;;
37203;SDS011;23098;48.054;10.636;2024-01-06T13:36:09;11.32;;;6.07;;
37203;SDS011;23098;48.054;10.636;2024-01-06T13:38:35;12.93;;;8.07;;
37203;SDS011;23098;48.054;10.636;2024-01-06T13:41:00;19.08;;;9.70;;
37203;SDS011;23098;48.054;10.636;2024-01-06T13:43:26;11.98;;;6.57;;
37203;SDS011;23098;48.054;10.636;2024-01-06T13:45:52;11.43;;;6.82;;
37203;SDS011;23098;48.054;10.636;2024-01-06T13:48:17;10.50;;;6.38;;
37203;SDS011;23098;48.054;10.636;2024-01-06T13:50:43;12.20;;;6.38;;
37203;SDS011;23098;48.054;10.636;2024-01-06T13:53:10;12.40;;;5.97;;
37203;SDS011;23098;48.054;10.636;2024-01-06T13:55:35;10.18;;;5.70;;
37203;SDS011;23098;48.054;10.636;2024-01-06T13:58:01;9.73;;;5.57;;
37203;SDS011;23098;48.054;10.636;2024-01-06T14:00:26;8.13;;;5.65;;
37203;SDS011;23098;48.054;10.636;2024-01-06T14:02:52;13.25;;;6.70;;
37203;SDS011;23098;48.054;10.636;2024-01-06T14:05:19;8.05;;;5.32;;
37203;SDS011;23098;48.054;10.636;2024-01-06T14:07:44;9.35;;;5.22;;
37203;SDS011;23098;48.054;10.636;2024-01-06T14:10:12;8.77;;;5.40;;
37203;SDS011;23098;48.054;10.636;2024-01-06T14:12:39;9.48;;;5.00;;
37203;SDS011;23098;48.054;10.636;2024-01-06T14:15:05;7.63;;;4.90;;
37203;SDS011;23098;48.054;10.636;2024-01-06T14:17:31;8.63;;;5.22;;
37203;SDS011;23098;48.054;10.636;2024-01-06T14:19:58;7.22;;;4.82;;
37203;SDS011;23098;48.054;10.636;2024-01-06T14:22:23;7.22;;;4.85;;
37203;SDS011;23098;48.054;10.636;2024-01-06T14:24:49;8.05;;;5.05;;
37203;SDS011;23098;48.054;10.636;2024-01-06T14:27:15;9.20;;;4.95;;